Time;durP1;ratioP1;P1;durP2;ratioP2;P2;SDS_P1;SDS_P2;PMS_P1;PMS_P2;Temp;Humidity;BMP_temperature;BMP_pressure;BME280_temperature;BME280_humidity;BME280_pressure;Samples;Min_cycle;Max_cycle;Signal;HPM_P1;HPM_P2
2021/11/07 00:00:01;;;;;;;12.82;7.97;;;4.00;99.90;;;;;;5033146;28;20211;-66
2021/11/07 00:05:24;;;;;;;12.10;8.40;;;3.90;99.90;;;;;;5033223;28;20176;-66
2021/11/07 00:10:36;;;;;;;8.05;6.15;;;3.70;99.90;;;;;;5033186;28;20653;-65
2021/11/07 00:16:05;;;;;;;19.77;8.32;;;3.60;99.90;;;;;;5028274;28;20235;-65
2021/11/07 00:18:39;;;;;;;11.77;6.95;;;3.50;99.90;;;;;;5014984;28;20201;-64
2021/11/07 00:23:44;;;;;;;10.30;9.33;;;3.50;99.90;;;;;;5033127;28;20224;-64
2021/11/07 00:26:22;;;;;;;11.18;6.88;;;3.50;99.90;;;;;;5033094;28;20444;-65
2021/11/07 00:29:04;;;;;;;6.43;5.60;;;3.40;99.90;;;;;;5032905;28;20654;-64
2021/11/07 00:31:49;;;;;;;8.60;6.75;;;3.40;99.90;;;;;;5032836;28;20182;-64
2021/11/07 00:36:58;;;;;;;7.80;4.95;;;3.30;99.90;;;;;;5015472;28;20170;-65
2021/11/07 00:42:12;;;;;;;9.52;5.95;;;3.10;99.90;;;;;;5032628;28;20158;-65
2021/11/07 00:44:58;;;;;;;8.77;6.53;;;3.00;99.90;;;;;;5032748;28;20173;-65
2021/11/07 00:47:42;;;;;;;4.95;3.88;;;3.00;99.90;;;;;;5032355;28;20185;-65
2021/11/07 00:50:12;;;;;;;7.63;3.92;;;2.90;99.90;;;;;;5032655;28;20228;-65
2021/11/07 00:57:56;;;;;;;7.13;5.70;;;2.80;99.90;;;;;;5024772;28;20202;-66
2021/11/07 01:02:59;;;;;;;7.40;5.65;;;2.80;99.90;;;;;;5012974;28;20165;-64
2021/11/07 01:05:28;;;;;;;9.65;5.60;;;2.90;99.90;;;;;;5012879;28;20167;-66
2021/11/07 01:07:55;;;;;;;8.45;4.18;;;2.90;99.90;;;;;;5012500;28;20655;-66
2021/11/07 01:10:22;;;;;;;7.05;5.05;;;3.00;99.90;;;;;;5012730;28;20182;-65
2021/11/07 01:12:49;;;;;;;8.25;6.10;;;3.00;99.90;;;;;;5012771;28;20163;-66
2021/11/07 01:15:15;;;;;;;9.90;4.40;;;3.10;99.90;;;;;;5016127;28;20193;-66
2021/11/07 01:17:41;;;;;;;8.90;5.38;;;3.20;99.90;;;;;;5015905;28;20265;-64
2021/11/07 01:20:09;;;;;;;12.57;5.68;;;3.30;99.90;;;;;;4998656;28;20238;-66
2021/11/07 01:25:03;;;;;;;9.65;8.18;;;3.50;99.90;;;;;;5016285;28;20171;-66
2021/11/07 01:27:36;;;;;;;8.88;5.85;;;3.50;99.90;;;;;;5015804;28;20197;-66
2021/11/07 01:30:05;;;;;;;10.85;7.50;;;3.50;99.90;;;;;;5016331;28;20253;-65
2021/11/07 01:32:38;;;;;;;8.75;6.40;;;3.40;99.90;;;;;;5016235;28;20175;-65
2021/11/07 01:35:15;;;;;;;18.63;6.88;;;3.40;99.90;;;;;;5016202;28;20202;-67
2021/11/07 01:37:54;;;;;;;8.70;5.53;;;3.40;99.90;;;;;;5015643;28;20205;-66
2021/11/07 01:40:27;;;;;;;9.30;6.22;;;3.40;99.90;;;;;;5015746;28;20197;-65
2021/11/07 01:42:55;;;;;;;13.93;6.72;;;3.40;99.90;;;;;;5015935;28;20639;-65
2021/11/07 01:45:30;;;;;;;7.60;5.28;;;3.30;99.90;;;;;;5015909;28;20190;-65
2021/11/07 01:48:13;;;;;;;6.55;5.40;;;3.30;99.90;;;;;;5015440;28;20197;-65
2021/11/07 01:50:44;;;;;;;8.50;6.47;;;3.30;99.90;;;;;;5015882;28;20536;-66
2021/11/07 01:55:52;;;;;;;13.80;7.82;;;3.20;99.90;;;;;;5015783;28;20674;-66
2021/11/07 01:58:18;;;;;;;10.57;6.10;;;3.20;99.90;;;;;;5026731;28;20205;-66
2021/11/07 02:00:45;;;;;;;11.43;7.50;;;3.20;99.90;;;;;;5035273;28;20212;-66
2021/11/07 02:03:12;;;;;;;8.60;5.72;;;3.20;99.90;;;;;;5034177;28;20174;-66
2021/11/07 02:05:38;;;;;;;10.70;5.60;;;3.20;99.90;;;;;;5035547;28;20163;-65
2021/11/07 02:08:06;;;;;;;10.70;7.22;;;3.30;99.90;;;;;;5034701;28;20201;-66
2021/11/07 02:10:33;;;;;;;12.45;8.77;;;3.20;99.90;;;;;;5035050;28;20166;-66
2021/11/07 02:12:59;;;;;;;6.38;5.40;;;3.20;99.90;;;;;;5035105;28;20226;-65
2021/11/07 02:15:24;;;;;;;5.45;3.88;;;3.30;99.90;;;;;;5034836;28;20562;-65
2021/11/07 02:17:50;;;;;;;10.63;8.87;;;3.20;99.90;;;;;;5033243;28;20194;-64
2021/11/07 02:20:37;;;;;;;8.53;7.60;;;3.20;99.90;;;;;;5034920;28;20213;-66
2021/11/07 02:23:07;;;;;;;7.80;7.13;;;3.30;99.90;;;;;;5035171;28;20166;-65
2021/11/07 02:25:34;;;;;;;7.38;6.40;;;3.30;99.90;;;;;;5034105;28;20174;-65
2021/11/07 02:28:02;;;;;;;12.77;8.57;;;3.30;99.90;;;;;;5034394;28;20186;-66
2021/11/07 02:30:28;;;;;;;10.68;6.13;;;3.30;99.90;;;;;;5035058;28;20526;-65
2021/11/07 02:32:54;;;;;;;11.03;7.23;;;3.30;99.90;;;;;;5034994;28;20174;-66
2021/11/07 02:35:20;;;;;;;10.70;5.18;;;3.30;99.90;;;;;;5034629;28;20915;-66
2021/11/07 02:37:46;;;;;;;9.50;6.47;;;3.30;99.90;;;;;;5034442;28;20197;-65
2021/11/07 02:40:13;;;;;;;11.15;6.10;;;3.30;99.90;;;;;;5034669;28;20452;-65
2021/11/07 02:42:43;;;;;;;12.93;7.40;;;3.40;99.90;;;;;;5034707;28;20588;-65
2021/11/07 02:45:12;;;;;;;8.32;7.03;;;3.40;99.90;;;;;;5034414;28;20253;-65
2021/11/07 02:47:38;;;;;;;12.68;7.18;;;3.30;99.90;;;;;;5034198;28;20194;-66
2021/11/07 02:50:05;;;;;;;10.65;4.70;;;3.30;99.90;;;;;;5034323;28;20254;-65
2021/11/07 02:52:32;;;;;;;14.23;9.02;;;3.30;99.90;;;;;;5034460;28;20198;-66
2021/11/07 02:54:58;;;;;;;8.90;6.18;;;3.20;99.90;;;;;;5034336;28;20186;-65
2021/11/07 02:57:24;;;;;;;11.30;6.35;;;3.20;99.90;;;;;;5029424;28;20197;-65
2021/11/07 03:00:02;;;;;;;12.57;5.13;;;3.20;99.90;;;;;;5014315;28;20709;-65
2021/11/07 03:02:28;;;;;;;10.80;5.60;;;3.20;99.90;;;;;;5014734;28;20173;-66
2021/11/07 03:04:55;;;;;;;7.00;5.83;;;3.20;99.90;;;;;;5014369;28;20174;-66
2021/11/07 03:07:21;;;;;;;8.18;6.15;;;3.10;99.90;;;;;;5013888;28;20408;-65
2021/11/07 03:09:47;;;;;;;7.25;5.55;;;3.10;99.90;;;;;;5014487;28;20171;-66
2021/11/07 03:12:14;;;;;;;13.70;8.30;;;3.00;99.90;;;;;;5014086;28;20531;-66
2021/11/07 03:14:43;;;;;;;9.15;6.15;;;3.00;99.90;;;;;;5014497;28;20181;-65
2021/11/07 03:17:11;;;;;;;12.52;6.53;;;3.00;99.90;;;;;;5013782;28;20535;-65
2021/11/07 03:19:37;;;;;;;9.65;4.97;;;3.00;99.90;;;;;;5013947;28;20194;-65
2021/11/07 03:22:07;;;;;;;13.00;5.72;;;2.90;99.90;;;;;;5014202;28;20171;-65
2021/11/07 03:24:33;;;;;;;8.85;4.70;;;2.90;99.90;;;;;;5014135;28;20245;-66
2021/11/07 03:26:59;;;;;;;6.07;4.90;;;2.80;99.90;;;;;;4995938;28;20167;-66
2021/11/07 03:29:33;;;;;;;8.40;5.93;;;2.90;99.90;;;;;;5013871;28;20480;-65
2021/11/07 03:34:33;;;;;;;6.45;5.05;;;2.80;99.90;;;;;;5014014;28;20179;-67
2021/11/07 03:37:02;;;;;;;8.40;5.20;;;2.70;99.90;;;;;;5013345;28;20550;-65
2021/11/07 03:39:30;;;;;;;8.32;5.50;;;2.70;99.90;;;;;;5013693;28;20690;-66
2021/11/07 03:41:56;;;;;;;6.07;4.25;;;2.60;99.90;;;;;;5013929;28;20202;-66
2021/11/07 03:44:23;;;;;;;12.47;6.77;;;2.60;99.90;;;;;;5013767;28;20198;-65
2021/11/07 03:46:51;;;;;;;10.88;7.47;;;2.60;99.90;;;;;;5013291;28;20377;-65
2021/11/07 03:49:17;;;;;;;5.35;4.20;;;2.50;99.90;;;;;;5013482;28;20201;-66
2021/11/07 03:51:44;;;;;;;8.93;5.75;;;2.50;99.90;;;;;;5013755;28;20177;-66
2021/11/07 03:54:11;;;;;;;8.57;5.55;;;2.50;99.90;;;;;;5013747;28;20665;-66
2021/11/07 03:56:37;;;;;;;8.60;4.55;;;2.50;99.90;;;;;;5013205;28;20170;-65
2021/11/07 03:59:03;;;;;;;8.77;5.10;;;2.60;99.90;;;;;;5031129;28;20725;-66
2021/11/07 04:01:29;;;;;;;9.45;7.45;;;2.60;99.90;;;;;;5033247;28;20166;-65
2021/11/07 04:03:55;;;;;;;6.73;4.70;;;2.50;99.90;;;;;;5033084;28;20181;-66
2021/11/07 04:06:22;;;;;;;7.90;4.53;;;2.50;99.90;;;;;;5032797;28;20408;-65
2021/11/07 04:08:48;;;;;;;9.40;5.88;;;2.50;99.90;;;;;;5033109;28;20197;-66
2021/11/07 04:11:14;;;;;;;5.73;5.23;;;2.60;99.90;;;;;;5033196;28;20166;-65
2021/11/07 04:13:40;;;;;;;8.10;5.47;;;2.50;99.90;;;;;;5033166;28;20405;-65
2021/11/07 04:16:08;;;;;;;9.52;5.43;;;2.50;99.90;;;;;;5033602;28;20629;-66
2021/11/07 04:18:34;;;;;;;8.30;5.35;;;2.50;99.90;;;;;;5032548;28;20185;-65
2021/11/07 04:21:00;;;;;;;8.68;4.25;;;2.50;99.90;;;;;;5015661;28;20201;-65
2021/11/07 04:23:25;;;;;;;8.13;6.10;;;2.50;99.90;;;;;;5032962;28;20232;-65
2021/11/07 04:25:51;;;;;;;7.97;5.30;;;2.50;99.90;;;;;;5033071;28;20162;-66
2021/11/07 04:28:17;;;;;;;5.27;4.87;;;2.50;99.90;;;;;;5032565;28;20648;-65
2021/11/07 04:30:43;;;;;;;8.70;5.17;;;2.40;99.90;;;;;;5032949;28;20252;-65
2021/11/07 04:33:09;;;;;;;7.40;6.63;;;2.40;99.90;;;;;;5032971;28;20518;-66
2021/11/07 04:35:34;;;;;;;7.67;5.50;;;2.30;99.90;;;;;;5033057;28;20182;-65
2021/11/07 04:38:00;;;;;;;9.50;4.77;;;2.30;99.90;;;;;;5032425;28;20289;-66
2021/11/07 04:40:27;;;;;;;6.10;5.03;;;2.30;99.90;;;;;;5032791;28;20435;-66
2021/11/07 04:42:53;;;;;;;5.00;3.53;;;2.30;99.90;;;;;;5032979;28;20384;-66
2021/11/07 04:45:19;;;;;;;4.95;3.85;;;2.20;99.90;;;;;;5032898;28;20365;-65
2021/11/07 04:47:47;;;;;;;10.10;5.13;;;2.20;99.90;;;;;;5014538;28;20327;-65
2021/11/07 04:50:15;;;;;;;6.55;4.88;;;2.20;99.90;;;;;;5036343;28;20174;-66
2021/11/07 04:52:42;;;;;;;8.85;5.75;;;2.20;99.90;;;;;;5018971;28;20173;-65
2021/11/07 04:55:08;;;;;;;5.43;4.68;;;2.20;99.90;;;;;;5036521;28;20173;-64
2021/11/07 04:57:41;;;;;;;17.75;7.45;;;2.20;99.90;;;;;;5030388;28;20203;-66
2021/11/07 05:00:11;;;;;;;9.18;5.70;;;2.20;99.90;;;;;;5016665;28;20202;-64
2021/11/07 05:02:38;;;;;;;12.88;4.88;;;2.20;99.90;;;;;;5016869;28;20245;-65
2021/11/07 05:05:06;;;;;;;10.95;6.60;;;2.10;99.90;;;;;;5016876;28;20159;-67
2021/11/07 05:07:32;;;;;;;7.43;5.57;;;2.20;99.90;;;;;;5016156;28;20199;-65
2021/11/07 05:09:58;;;;;;;9.38;4.63;;;2.20;99.90;;;;;;5016617;28;20167;-67
2021/11/07 05:12:23;;;;;;;14.50;5.53;;;2.10;99.90;;;;;;5015236;28;20171;-66
2021/11/07 05:14:49;;;;;;;5.37;4.40;;;2.10;99.90;;;;;;5016218;28;20258;-65
2021/11/07 05:17:15;;;;;;;8.60;6.40;;;2.10;99.90;;;;;;5015908;28;20206;-65
2021/11/07 05:19:40;;;;;;;7.37;5.40;;;2.10;99.90;;;;;;5016799;28;20194;-66
2021/11/07 05:22:07;;;;;;;11.57;6.17;;;2.10;99.90;;;;;;5016295;28;20171;-67
2021/11/07 05:24:33;;;;;;;5.45;4.15;;;2.10;99.90;;;;;;5016405;28;20190;-66
2021/11/07 05:26:59;;;;;;;9.90;6.15;;;2.20;99.90;;;;;;5015894;28;20186;-68
2021/11/07 05:29:24;;;;;;;5.93;5.20;;;2.10;99.90;;;;;;5015988;28;20232;-66
2021/11/07 05:31:50;;;;;;;6.80;6.13;;;2.20;99.90;;;;;;5016120;28;20200;-65
2021/11/07 05:34:16;;;;;;;7.23;5.33;;;2.20;99.90;;;;;;5016907;28;20213;-65
2021/11/07 05:36:44;;;;;;;6.13;4.43;;;2.20;99.90;;;;;;5015890;28;20274;-65
2021/11/07 05:39:11;;;;;;;6.07;4.20;;;2.10;99.90;;;;;;5015942;28;20195;-67
2021/11/07 05:41:37;;;;;;;8.25;5.95;;;2.10;99.90;;;;;;5015864;28;20178;-65
2021/11/07 05:44:03;;;;;;;7.73;5.33;;;2.20;99.90;;;;;;5015798;28;20167;-66
2021/11/07 05:46:28;;;;;;;13.75;6.80;;;2.20;99.90;;;;;;5015459;28;20271;-65
2021/11/07 05:48:54;;;;;;;5.37;3.80;;;2.20;99.90;;;;;;5015719;28;20221;-66
2021/11/07 05:51:20;;;;;;;7.80;5.00;;;2.20;99.90;;;;;;5015875;28;20518;-67
2021/11/07 05:53:46;;;;;;;13.57;6.77;;;2.20;99.90;;;;;;5015883;28;20182;-65
2021/11/07 05:56:11;;;;;;;6.27;5.67;;;2.20;99.90;;;;;;5015546;28;20167;-65
2021/11/07 05:58:38;;;;;;;8.03;4.77;;;2.20;99.90;;;;;;5029510;28;20433;-66
2021/11/07 06:01:04;;;;;;;7.68;3.90;;;2.20;99.90;;;;;;5035103;28;20209;-65
2021/11/07 06:03:30;;;;;;;6.03;4.65;;;2.20;99.90;;;;;;5035369;28;20189;-66
2021/11/07 06:05:56;;;;;;;10.50;9.13;;;2.20;99.90;;;;;;5035581;28;20171;-66
2021/11/07 06:08:21;;;;;;;7.67;4.80;;;2.20;99.90;;;;;;5034831;28;20431;-67
2021/11/07 06:10:47;;;;;;;6.17;4.43;;;2.30;99.90;;;;;;5035245;28;20166;-65
2021/11/07 06:13:13;;;;;;;7.53;6.23;;;2.30;99.90;;;;;;5035056;28;20245;-67
2021/11/07 06:15:39;;;;;;;6.57;4.57;;;2.40;99.90;;;;;;5034979;28;20594;-67
2021/11/07 06:18:05;;;;;;;9.45;5.40;;;2.50;99.90;;;;;;5034722;28;20259;-66
2021/11/07 06:20:31;;;;;;;8.55;6.78;;;2.60;99.90;;;;;;5033617;28;20208;-66
2021/11/07 06:22:57;;;;;;;6.10;5.20;;;2.80;99.90;;;;;;5035043;28;20170;-65
2021/11/07 06:25:23;;;;;;;6.10;5.47;;;2.80;99.90;;;;;;5034731;28;20170;-67
2021/11/07 06:27:49;;;;;;;8.60;5.50;;;2.90;99.90;;;;;;5032925;28;20562;-65
2021/11/07 06:30:15;;;;;;;7.20;5.50;;;3.00;99.90;;;;;;5034844;28;20166;-64
2021/11/07 06:32:41;;;;;;;10.70;6.95;;;3.00;99.90;;;;;;5034600;28;20384;-65
2021/11/07 06:35:09;;;;;;;5.97;4.40;;;3.10;99.90;;;;;;5034733;28;20259;-66
2021/11/07 06:37:35;;;;;;;9.57;6.03;;;3.10;99.90;;;;;;5034147;28;20328;-65
2021/11/07 06:40:01;;;;;;;9.37;5.37;;;3.20;99.90;;;;;;5033205;28;20276;-66
2021/11/07 06:42:27;;;;;;;9.90;5.35;;;3.20;99.90;;;;;;5034692;28;20407;-65
2021/11/07 06:44:53;;;;;;;12.73;5.10;;;3.30;99.90;;;;;;5034708;28;20163;-65
2021/11/07 06:47:19;;;;;;;8.02;6.30;;;3.30;99.90;;;;;;5033956;28;20405;-66
2021/11/07 06:49:46;;;;;;;5.97;5.40;;;3.40;99.90;;;;;;5033091;28;20716;-66
2021/11/07 06:52:12;;;;;;;12.55;6.47;;;3.60;99.90;;;;;;5034437;28;20166;-66
2021/11/07 06:54:39;;;;;;;9.95;7.40;;;3.70;99.90;;;;;;5035448;28;20689;-65
2021/11/07 06:57:05;;;;;;;13.82;6.47;;;3.90;99.90;;;;;;5032104;28;20186;-64
2021/11/07 06:59:31;;;;;;;13.73;8.07;;;4.10;99.90;;;;;;5014523;28;20256;-67
2021/11/07 07:01:57;;;;;;;11.05;8.35;;;4.40;99.90;;;;;;5014322;28;20166;-67
2021/11/07 07:04:23;;;;;;;11.43;6.78;;;4.80;99.90;;;;;;5014326;28;20229;-66
2021/11/07 07:06:49;;;;;;;13.80;8.00;;;5.10;99.90;;;;;;5013956;28;20197;-67
2021/11/07 07:09:22;;;;;;;13.70;7.90;;;5.30;99.90;;;;;;5014408;28;20179;-67
2021/11/07 07:11:50;;;;;;;10.25;7.32;;;5.40;99.90;;;;;;5013732;28;20398;-66
2021/11/07 07:14:27;;;;;;;12.90;8.27;;;5.60;99.90;;;;;;5014193;28;20167;-66
2021/11/07 07:32:47;;;;;;;6.67;6.00;;;8.00;99.90;;;;;;5013840;28;20175;-66
2021/11/07 07:35:15;;;;;;;8.02;5.45;;;8.50;99.90;;;;;;5019401;28;20181;-67
2021/11/07 07:37:41;;;;;;;4.75;4.30;;;9.00;99.90;;;;;;5052819;28;20250;-66
2021/11/07 07:40:08;;;;;;;5.88;5.35;;;9.30;99.90;;;;;;5053703;28;20250;-66
2021/11/07 07:42:34;;;;;;;7.70;5.85;;;9.50;99.90;;;;;;5053562;28;20649;-65
2021/11/07 07:45:02;;;;;;;8.73;5.32;;;9.50;99.90;;;;;;5052195;28;20260;-66
2021/11/07 07:47:28;;;;;;;6.70;5.22;;;9.60;99.90;;;;;;5033149;28;20182;-66
2021/11/07 07:49:54;;;;;;;5.75;5.25;;;9.40;99.90;;;;;;5015581;28;20178;-66
2021/11/07 07:52:23;;;;;;;4.60;3.67;;;9.40;99.90;;;;;;5033174;28;20184;-66
2021/11/07 07:54:49;;;;;;;5.45;4.93;;;9.70;99.90;;;;;;5044947;28;20175;-67
2021/11/07 07:57:15;;;;;;;6.43;3.83;;;10.00;99.90;;;;;;5032695;28;20258;-67
2021/11/07 07:59:41;;;;;;;4.50;4.07;;;10.40;99.90;;;;;;5026345;28;20442;-66
2021/11/07 08:02:07;;;;;;;4.73;4.20;;;11.00;99.90;;;;;;5017111;28;20395;-67
2021/11/07 08:04:32;;;;;;;5.63;4.50;;;11.20;99.90;;;;;;5033147;28;20585;-66
2021/11/07 08:06:58;;;;;;;4.30;3.80;;;11.20;99.90;;;;;;5032917;28;20232;-66
2021/11/07 08:09:24;;;;;;;5.30;4.80;;;10.90;99.90;;;;;;5032892;28;20673;-70
2021/11/07 08:11:49;;;;;;;5.30;4.90;;;10.50;99.90;;;;;;5015164;28;20276;-71
2021/11/07 08:14:15;;;;;;;6.03;4.40;;;10.10;99.90;;;;;;5032900;28;20188;-71
2021/11/07 08:16:41;;;;;;;8.10;5.27;;;9.70;99.90;;;;;;5019441;28;20195;-69
2021/11/07 08:19:07;;;;;;;4.40;4.00;;;9.30;99.90;;;;;;5050548;28;20206;-67
2021/11/07 08:21:37;;;;;;;6.97;5.20;;;8.80;99.90;;;;;;5052487;28;20546;-65
2021/11/07 08:24:09;;;;;;;6.32;4.75;;;8.40;99.90;;;;;;5054940;28;20564;-71
2021/11/07 08:26:39;;;;;;;5.82;4.18;;;8.10;99.90;;;;;;5038663;28;20303;-70
2021/11/07 08:29:07;;;;;;;5.43;5.00;;;8.10;99.90;;;;;;5057104;28;20189;-70
2021/11/07 08:31:35;;;;;;;6.97;4.20;;;7.90;99.90;;;;;;5050101;28;20174;-71
2021/11/07 08:34:04;;;;;;;6.55;4.47;;;7.80;99.90;;;;;;5037107;28;20257;-70
2021/11/07 08:36:39;;;;;;;4.93;4.47;;;7.70;99.90;;;;;;5049215;28;20175;-70
2021/11/07 08:39:19;;;;;;;4.00;3.45;;;7.70;99.90;;;;;;5056660;28;20237;-65
2021/11/07 08:41:53;;;;;;;5.80;4.43;;;7.70;99.90;;;;;;5056784;28;20252;-65
2021/11/07 09:00:30;;;;;;;4.88;3.40;;;7.70;99.90;;;;;;5037482;28;20240;-66
2021/11/07 09:08:25;;;;;;;4.72;3.55;;;7.90;99.90;;;;;;5042441;28;20212;-66
2021/11/07 09:10:52;;;;;;;3.67;2.80;;;8.00;99.90;;;;;;5055863;28;20161;-65
2021/11/07 09:13:19;;;;;;;3.15;2.83;;;8.10;99.90;;;;;;5056185;28;20208;-64
2021/11/07 09:15:47;;;;;;;4.85;3.72;;;8.30;99.90;;;;;;5054361;28;20185;-64
2021/11/07 09:18:13;;;;;;;4.53;3.25;;;8.30;99.90;;;;;;5055630;28;20216;-64
2021/11/07 09:21:22;;;;;;;12.32;4.88;;;8.60;99.90;;;;;;5055261;28;20185;-68
2021/11/07 09:23:41;;;;;;;3.50;3.20;;;9.30;99.90;;;;;;5053288;28;20191;-68
2021/11/07 09:36:35;;;;;;;3.70;3.23;;;13.40;97.60;;;;;;5034880;28;20392;-71
2021/11/07 09:44:05;;;;;;;3.60;3.23;;;12.20;98.10;;;;;;5035310;28;20446;-69
2021/11/07 09:46:41;;;;;;;2.83;2.63;;;11.90;98.50;;;;;;5035416;28;20382;-69
2021/11/07 09:49:15;;;;;;;2.70;2.33;;;11.60;98.80;;;;;;5034873;28;20458;-64
2021/11/07 09:51:46;;;;;;;3.33;3.03;;;11.20;99.30;;;;;;5035566;28;20411;-64
2021/11/07 09:54:14;;;;;;;3.40;3.10;;;10.90;99.90;;;;;;5035361;28;20418;-63
2021/11/07 09:56:45;;;;;;;2.47;2.27;;;10.80;99.90;;;;;;5035154;28;20417;-63
2021/11/07 09:59:12;;;;;;;3.47;2.77;;;10.70;99.90;;;;;;5032670;28;20409;-63
2021/11/07 10:01:50;;;;;;;4.87;3.63;;;10.70;99.90;;;;;;5055159;28;20383;-67
2021/11/07 10:04:20;;;;;;;3.50;2.80;;;10.50;99.90;;;;;;5055380;28;20431;-64
2021/11/07 10:06:50;;;;;;;3.73;2.87;;;10.50;99.90;;;;;;5054745;28;20388;-64
2021/11/07 10:09:38;;;;;;;2.72;2.53;;;10.50;99.90;;;;;;5054742;28;20405;-64
2021/11/07 10:12:11;;;;;;;8.33;4.70;;;10.40;99.90;;;;;;5051408;28;20203;-66
2021/11/07 10:14:51;;;;;;;4.53;3.53;;;10.40;99.90;;;;;;5032018;28;20425;-62
2021/11/07 10:17:43;;;;;;;4.50;3.40;;;10.40;99.90;;;;;;5033842;28;20240;-64
2021/11/07 10:20:25;;;;;;;4.85;3.30;;;10.20;99.90;;;;;;5033142;28;20537;-62
2021/11/07 10:23:08;;;;;;;5.95;3.67;;;10.20;99.90;;;;;;5032725;28;20174;-65
2021/11/07 10:25:42;;;;;;;2.55;2.33;;;10.30;99.90;;;;;;5043585;28;20688;-64
2021/11/07 10:28:23;;;;;;;5.30;3.07;;;10.50;99.90;;;;;;5024453;28;20708;-66
2021/11/07 10:31:24;;;;;;;5.20;3.40;;;10.70;99.90;;;;;;5030450;28;20392;-63
2021/11/07 10:42:15;;;;;;;1.43;1.33;;;11.60;99.90;;;;;;5032460;28;20513;-64
2021/11/07 10:53:03;;;;;;;2.70;1.93;;;12.50;99.80;;;;;;5033361;28;20392;-65
2021/11/07 10:55:31;;;;;;;2.10;1.80;;;12.50;99.20;;;;;;5012726;28;20469;-66
2021/11/07 10:58:01;;;;;;;1.77;1.67;;;12.60;99.60;;;;;;5032111;28;20458;-66
2021/11/07 11:00:31;;;;;;;1.87;1.70;;;12.70;98.90;;;;;;5033491;28;20473;-64
2021/11/07 11:03:02;;;;;;;2.23;2.10;;;12.80;98.70;;;;;;5032494;28;20412;-65
2021/11/07 11:05:46;;;;;;;1.93;1.70;;;13.00;99.30;;;;;;5022728;28;20419;-65
2021/11/07 11:08:20;;;;;;;1.80;1.70;;;13.20;99.90;;;;;;5020816;28;20454;-65
2021/11/07 11:11:06;;;;;;;1.40;1.30;;;13.40;98.30;;;;;;5023792;28;20391;-64
2021/11/07 11:22:16;;;;;;;2.00;1.90;;;13.60;98.60;;;;;;5028689;28;20426;-64
2021/11/07 11:25:16;;;;;;;1.60;1.30;;;13.60;97.40;;;;;;5031462;28;20378;-64
2021/11/07 11:28:01;;;;;;;1.37;1.30;;;13.30;97.40;;;;;;5030902;28;20503;-65
2021/11/07 11:30:48;;;;;;;1.63;1.53;;;13.10;98.20;;;;;;5031702;28;20434;-65
2021/11/07 11:33:21;;;;;;;1.10;1.10;;;13.10;98.40;;;;;;5033011;28;20898;-65
2021/11/07 11:36:19;;;;;;;3.30;1.53;;;13.10;99.10;;;;;;5033615;28;20731;-66
2021/11/07 11:38:40;;;;;;;1.20;1.20;;;13.00;99.50;;;;;;5033185;28;20424;-64
2021/11/07 11:41:19;;;;;;;5.87;1.40;;;13.10;99.30;;;;;;5033039;28;20438;-67
2021/11/07 11:43:49;;;;;;;1.50;1.40;;;13.10;98.80;;;;;;5031924;28;20462;-67
2021/11/07 11:46:26;;;;;;;2.00;1.57;;;13.10;98.70;;;;;;5050334;28;20423;-70
2021/11/07 11:57:20;;;;;;;2.17;1.97;;;13.10;99.70;;;;;;5050773;28;20389;-72
2021/11/07 12:02:22;;;;;;;1.90;1.60;;;13.10;99.30;;;;;;5051079;28;20426;-69
2021/11/07 12:05:30;;;;;;;1.40;1.30;;;13.20;99.10;;;;;;5051417;28;20739;-69
2021/11/07 12:08:32;;;;;;;1.00;0.90;;;13.30;99.20;;;;;;5052837;28;20434;-70
2021/11/07 12:14:15;;;;;;;1.60;1.30;;;13.70;99.20;;;;;;5042262;28;20941;-70
2021/11/07 12:16:51;;;;;;;1.33;1.23;;;13.90;99.20;;;;;;5052659;28;20414;-68
2021/11/07 12:19:19;;;;;;;1.83;1.63;;;14.00;98.90;;;;;;5051730;28;20417;-70
2021/11/07 12:21:51;;;;;;;1.30;1.20;;;14.10;99.40;;;;;;5033559;28;20403;-71
2021/11/07 12:24:28;;;;;;;1.17;1.10;;;14.20;99.40;;;;;;5033049;28;20800;-67
2021/11/07 12:27:27;;;;;;;1.30;0.93;;;14.20;98.90;;;;;;5032786;28;20384;-65
2021/11/07 12:30:17;;;;;;;1.97;1.20;;;14.20;98.90;;;;;;5029436;28;20419;-67
2021/11/07 12:32:46;;;;;;;1.30;1.20;;;14.20;99.60;;;;;;5032806;28;20405;-70
2021/11/07 12:35:21;;;;;;;1.40;1.30;;;14.10;99.90;;;;;;5034705;28;20408;-70
2021/11/07 12:41:12;;;;;;;1.23;1.20;;;13.90;99.00;;;;;;5042733;28;20991;-70
2021/11/07 12:43:43;;;;;;;1.53;1.20;;;13.70;99.10;;;;;;5032530;28;20850;-70
2021/11/07 12:46:50;;;;;;;1.33;1.23;;;13.60;99.10;;;;;;5032644;28;20744;-67
2021/11/07 12:49:15;;;;;;;1.17;1.17;;;13.40;99.80;;;;;;5014173;28;21129;-68
2021/11/07 12:52:07;;;;;;;1.50;1.40;;;13.30;99.90;;;;;;5031403;28;20487;-67
2021/11/07 12:54:38;;;;;;;1.03;1.03;;;13.20;99.90;;;;;;5032436;28;20458;-67
2021/11/07 12:57:07;;;;;;;1.40;1.40;;;13.30;99.90;;;;;;5032340;28;20410;-67
2021/11/07 12:59:43;;;;;;;1.00;1.00;;;13.40;99.90;;;;;;5031938;28;20874;-67
2021/11/07 13:02:09;;;;;;;1.37;1.27;;;13.40;99.90;;;;;;5032810;28;20461;-68
2021/11/07 13:04:44;;;;;;;0.60;0.60;;;13.30;99.90;;;;;;5032745;28;20856;-68
2021/11/07 13:07:12;;;;;;;0.70;0.60;;;13.10;99.90;;;;;;5032071;28;20215;-68
2021/11/07 13:09:46;;;;;;;0.63;0.63;;;13.20;99.90;;;;;;5033361;28;20410;-68
2021/11/07 13:12:21;;;;;;;0.60;0.60;;;13.30;99.90;;;;;;5036018;28;20394;-67
2021/11/07 13:26:39;;;;;;;0.57;0.57;;;12.70;99.90;;;;;;5038154;28;20398;-63
2021/11/07 13:32:01;;;;;;;1.00;0.90;;;12.40;99.90;;;;;;5041641;28;20423;-60
2021/11/07 13:34:29;;;;;;;1.20;1.10;;;12.40;99.90;;;;;;5055650;28;20392;-68
2021/11/07 13:36:57;;;;;;;1.10;0.80;;;12.40;99.90;;;;;;5055202;28;20414;-63
2021/11/07 13:39:37;;;;;;;0.90;0.90;;;12.40;99.90;;;;;;5054661;28;20439;-62
2021/11/07 13:42:14;;;;;;;0.90;0.57;;;12.40;99.90;;;;;;5015227;28;20481;-62
2021/11/07 13:44:42;;;;;;;0.97;0.97;;;12.40;99.90;;;;;;5033579;28;20168;-65
2021/11/07 13:47:08;;;;;;;0.70;0.70;;;12.30;99.90;;;;;;5034326;28;20436;-62
2021/11/07 13:49:48;;;;;;;0.70;0.70;;;12.20;99.90;;;;;;5034072;28;20838;-62
2021/11/07 13:52:14;;;;;;;0.97;0.80;;;12.20;99.90;;;;;;5033374;28;20313;-62
2021/11/07 13:54:41;;;;;;;0.70;0.70;;;12.20;99.90;;;;;;5033640;28;20516;-62
2021/11/07 13:57:08;;;;;;;0.70;0.70;;;12.10;99.90;;;;;;5039663;28;20394;-63
2021/11/07 13:59:40;;;;;;;0.90;0.90;;;12.00;99.90;;;;;;5053246;28;20439;-63
2021/11/07 14:02:32;;;;;;;0.80;0.70;;;12.00;99.90;;;;;;5039618;28;20400;-62
2021/11/07 14:04:58;;;;;;;0.73;0.73;;;11.80;99.90;;;;;;5030653;28;20924;-62
2021/11/07 14:07:29;;;;;;;1.60;0.83;;;11.80;99.90;;;;;;5033623;28;20414;-62
2021/11/07 14:09:56;;;;;;;0.70;0.70;;;11.80;99.90;;;;;;5034129;28;20406;-61
2021/11/07 14:12:30;;;;;;;0.77;0.77;;;11.90;99.90;;;;;;5034769;28;20384;-61
2021/11/07 14:15:22;;;;;;;0.80;0.80;;;11.80;99.90;;;;;;5035023;28;20430;-62
2021/11/07 14:17:54;;;;;;;1.80;1.00;;;11.70;99.90;;;;;;5014940;28;20474;-63
2021/11/07 14:20:38;;;;;;;1.38;0.85;;;11.60;99.90;;;;;;5032663;28;20485;-64
2021/11/07 14:23:19;;;;;;;1.40;1.20;;;11.50;99.90;;;;;;5034969;28;20185;-63
2021/11/07 14:25:53;;;;;;;1.42;1.33;;;11.50;99.90;;;;;;5035062;28;20809;-62
2021/11/07 14:28:25;;;;;;;1.60;1.08;;;11.40;99.90;;;;;;5034309;28;20191;-62
2021/11/07 14:30:52;;;;;;;0.90;0.90;;;11.40;99.90;;;;;;5041491;28;20223;-62
2021/11/07 14:33:30;;;;;;;0.70;0.70;;;11.30;99.90;;;;;;5054536;28;20181;-63
2021/11/07 14:36:04;;;;;;;0.65;0.65;;;11.30;99.90;;;;;;5036539;28;20174;-62
2021/11/07 14:38:38;;;;;;;0.52;0.52;;;11.30;99.90;;;;;;5054098;28;20189;-63
2021/11/07 14:41:17;;;;;;;2.38;1.25;;;11.30;99.90;;;;;;5054631;28;20287;-63
2021/11/07 14:44:12;;;;;;;1.73;1.40;;;11.30;99.90;;;;;;5054481;28;20195;-63
2021/11/07 14:49:40;;;;;;;1.42;1.20;;;11.20;99.90;;;;;;5054483;28;20213;-61
2021/11/07 14:52:39;;;;;;;1.38;1.10;;;11.20;99.90;;;;;;5054365;28;20569;-63
2021/11/07 15:03:16;;;;;;;0.77;0.77;;;11.10;99.90;;;;;;5034637;28;20167;-61
2021/11/07 15:05:55;;;;;;;0.70;0.70;;;11.00;99.90;;;;;;5017338;28;20175;-62
2021/11/07 15:13:59;;;;;;;0.77;0.73;;;11.00;99.90;;;;;;5018234;28;20174;-61
2021/11/07 15:16:35;;;;;;;1.13;1.10;;;10.90;99.90;;;;;;5051622;28;20197;-62
2021/11/07 15:21:45;;;;;;;0.70;0.70;;;10.80;99.90;;;;;;5053659;28;20197;-62
2021/11/07 15:24:22;;;;;;;0.93;0.93;;;10.80;99.90;;;;;;5036517;28;20633;-62
2021/11/07 15:26:54;;;;;;;1.40;1.30;;;10.80;99.90;;;;;;5035526;28;20170;-63
2021/11/07 15:29:28;;;;;;;1.30;1.05;;;10.70;99.90;;;;;;5050132;28;20904;-61
2021/11/07 15:32:09;;;;;;;1.05;0.93;;;10.60;99.90;;;;;;5033418;28;20245;-62
2021/11/07 15:34:38;;;;;;;1.35;1.05;;;10.60;99.90;;;;;;5033719;28;20158;-63
2021/11/07 15:37:10;;;;;;;1.17;0.93;;;10.70;99.90;;;;;;5033230;28;20172;-62
2021/11/07 15:39:48;;;;;;;1.25;1.15;;;10.60;99.90;;;;;;5033424;28;20241;-61
2021/11/07 15:42:16;;;;;;;0.95;0.95;;;10.50;99.90;;;;;;5033610;28;20181;-61
2021/11/07 15:44:59;;;;;;;5.38;0.93;;;10.50;99.90;;;;;;5040032;28;20538;-62
2021/11/07 15:47:32;;;;;;;1.50;1.40;;;10.50;99.90;;;;;;5053016;28;20569;-62
2021/11/07 15:50:11;;;;;;;1.50;0.85;;;10.50;99.90;;;;;;5053699;28;20177;-62